createdAt,value
2019-04-22T00:00:55.376Z,57.12
2019-04-22T00:03:36.094Z,56.86
2019-04-22T00:06:18.056Z,56.19
2019-04-22T00:08:55.568Z,56.40
2019-04-22T00:13:56.681Z,55.69
2019-04-22T00:16:45.432Z,55.68
2019-04-22T00:19:19.259Z,56.31
2019-04-22T00:22:00.537Z,57.16
2019-04-22T00:24:05.906Z,57.06
2019-04-22T00:26:37.743Z,57.02
2019-04-22T00:29:24.142Z,57.17
2019-04-22T00:31:46.188Z,57.85
2019-04-22T00:34:16.681Z,58.09
2019-04-22T00:36:48.418Z,57.79
2019-04-22T00:39:33.618Z,57.15
2019-04-22T00:41:55.221Z,57.57
2019-04-22T00:44:35.341Z,57.83
2019-04-22T00:47:00.931Z,58.08
2019-04-22T00:52:09.351Z,58.46
2019-04-22T00:54:43.889Z,58.30
2019-04-22T00:57:10.440Z,58.73
2019-04-22T00:59:40.537Z,58.71
2019-04-22T01:04:55.995Z,58.21
2019-04-22T01:07:23.867Z,59.16
2019-04-22T01:09:58.882Z,59.49
2019-04-22T01:12:31.922Z,59.67
2019-04-22T01:15:00.911Z,59.59
2019-04-22T01:17:35.914Z,59.64
2019-04-22T01:20:25.748Z,60.01
2019-04-22T01:22:34.241Z,60.42
2019-04-22T01:25:08.105Z,61.04
2019-04-22T01:27:34.542Z,59.46
2019-04-22T01:30:07.166Z,59.97
2019-04-22T01:32:33.383Z,60.11
2019-04-22T01:35:12.986Z,60.20
2019-04-22T01:37:49.572Z,60.26
2019-04-22T01:43:03.785Z,61.15
2019-04-22T01:45:31.402Z,60.96
2019-04-22T01:48:07.449Z,60.81
2019-04-22T01:50:41.100Z,61.30
2019-04-22T01:58:08.515Z,60.73
2019-04-22T02:00:51.059Z,61.01
2019-04-22T02:03:17.201Z,60.68
2019-04-22T02:05:48.464Z,60.88
2019-04-22T02:08:24.784Z,61.15
2019-04-22T02:10:54.628Z,61.30
2019-04-22T02:13:21.422Z,61.15
2019-04-22T02:16:03.505Z,61.36
2019-04-22T02:18:31.786Z,61.03
2019-04-22T02:20:55.299Z,61.37
2019-04-22T02:26:10.858Z,62.50
2019-04-22T02:36:23.045Z,62.10
2019-04-22T02:39:00.006Z,62.83
2019-04-22T02:41:35.041Z,63.26
2019-04-22T02:44:03.174Z,62.95
2019-04-22T02:46:49.982Z,63.64
2019-04-22T02:49:11.141Z,63.91
2019-04-22T02:51:28.253Z,63.35
2019-04-22T02:56:31.446Z,63.38
2019-04-22T02:59:09.690Z,64.13
2019-04-22T03:01:36.880Z,64.58
2019-04-22T03:06:43.511Z,63.67
2019-04-22T03:14:13.436Z,64.20
2019-04-22T03:16:44.834Z,63.55
2019-04-22T03:21:54.582Z,63.63
2019-04-22T03:24:25.878Z,64.46
2019-04-22T03:26:59.102Z,64.63
2019-04-22T03:30:36.466Z,65.35
2019-04-22T03:37:49.161Z,66.21
2019-04-22T03:42:52.369Z,65.52
2019-04-22T03:47:54.225Z,65.04
2019-04-22T03:53:01.942Z,65.67
2019-04-22T03:55:23.218Z,65.52
2019-04-22T04:00:41.719Z,66.24
2019-04-22T04:03:00.897Z,66.42
2019-04-22T04:05:43.628Z,66.16
2019-04-22T04:08:12.148Z,65.28
2019-04-22T04:15:52.355Z,65.19
2019-04-22T04:18:32.788Z,65.09
2019-04-22T04:20:45.291Z,65.97
2019-04-22T04:28:39.796Z,65.57
2019-04-22T04:30:55.240Z,65.89
2019-04-22T04:33:22.972Z,66.37
2019-04-22T04:36:01.838Z,66.69
2019-04-22T04:38:28.962Z,67.39
2019-04-22T04:41:03.699Z,67.30
2019-04-22T04:43:37.322Z,66.90
2019-04-22T04:46:06.935Z,66.80
2019-04-22T04:48:41.967Z,66.67
2019-04-22T04:51:28.704Z,66.53
2019-04-22T04:56:11.989Z,66.95
2019-04-22T05:03:48.956Z,66.62
2019-04-22T05:06:43.255Z,66.34
2019-04-22T05:11:32.227Z,66.52
2019-04-22T05:19:05.635Z,66.74
2019-04-22T05:21:21.583Z,66.30
2019-04-22T05:23:53.550Z,65.78
2019-04-22T05:26:29.323Z,66.88
2019-04-22T05:29:03.800Z,66.87
2019-04-22T05:31:32.211Z,66.71
2019-04-22T05:34:06.292Z,68.28
2019-04-22T05:36:35.387Z,67.75
2019-04-22T05:39:06.044Z,72.90
2019-04-22T05:41:35.922Z,71.09
2019-04-22T05:44:09.932Z,70.03
2019-04-22T05:46:34.560Z,69.87
2019-04-22T05:49:13.465Z,68.81
2019-04-22T05:51:42.410Z,68.24
2019-04-22T05:54:14.752Z,67.48
2019-04-22T05:56:40.914Z,68.36
2019-04-22T05:59:20.822Z,67.31
2019-04-22T06:02:05.367Z,65.44
2019-04-22T06:04:43.196Z,67.02
2019-04-22T06:06:53.584Z,65.83
2019-04-22T06:09:28.804Z,68.16
2019-04-22T06:11:54.496Z,68.38
2019-04-22T06:14:29.632Z,67.88
2019-04-22T06:17:10.756Z,67.46
2019-04-22T06:19:38.556Z,67.74
2019-04-22T06:22:16.876Z,67.52
2019-04-22T06:24:43.754Z,67.01
2019-04-22T06:27:21.832Z,65.46
2019-04-22T06:29:45.830Z,66.10
2019-04-22T06:32:26.682Z,65.71
2019-04-22T06:34:50.810Z,66.12
2019-04-22T06:37:32.249Z,66.04
2019-04-22T06:39:51.167Z,65.80
2019-04-22T06:42:28.451Z,61.59
2019-04-22T06:44:57.897Z,61.20
2019-04-22T06:47:44.087Z,60.23
2019-04-22T06:50:03.000Z,58.57
2019-04-22T06:52:30.766Z,60.07
2019-04-22T06:55:13.210Z,58.23
2019-04-22T06:57:37.027Z,57.13
2019-04-22T07:00:10.649Z,57.24
2019-04-22T07:03:26.275Z,57.06
2019-04-22T07:05:33.945Z,55.78
2019-04-22T07:08:16.302Z,56.16
2019-04-22T07:13:11.495Z,53.68
2019-04-22T07:18:19.697Z,53.01
2019-04-22T07:20:48.038Z,52.16
2019-04-22T07:23:24.781Z,52.83
2019-04-22T07:25:47.938Z,54.36
2019-04-22T07:30:53.427Z,52.23
2019-04-22T07:33:28.138Z,52.15
2019-04-22T07:36:18.173Z,52.15
2019-04-22T07:38:26.323Z,51.16
2019-04-22T07:40:56.193Z,50.80
2019-04-22T07:43:42.929Z,50.32
2019-04-22T07:46:00.307Z,51.32
2019-04-22T07:48:43.417Z,51.03
2019-04-22T07:51:07.207Z,50.95
2019-04-22T07:53:33.981Z,50.54
2019-04-22T07:56:16.181Z,50.72
2019-04-22T07:58:44.402Z,51.29
2019-04-22T08:01:13.987Z,51.06
2019-04-22T08:04:00.082Z,49.84
2019-04-22T08:06:17.502Z,49.56
2019-04-22T08:08:52.989Z,48.91
2019-04-22T08:11:37.645Z,48.92
2019-04-22T08:13:54.627Z,48.46
2019-04-22T08:16:23.319Z,47.07
2019-04-22T08:19:04.106Z,47.36
2019-04-22T08:21:33.309Z,46.87
2019-04-22T08:24:01.250Z,47.18
2019-04-22T08:26:31.982Z,45.94
2019-04-22T08:29:11.996Z,46.65
2019-04-22T08:31:43.352Z,46.65
2019-04-22T08:34:14.984Z,46.59
2019-04-22T08:39:14.089Z,44.57
2019-04-22T08:41:39.233Z,46.61
2019-04-22T08:46:50.691Z,45.65
2019-04-22T08:49:18.881Z,43.70
2019-04-22T08:51:50.732Z,42.78
2019-04-22T08:54:25.951Z,41.61
2019-04-22T08:56:50.721Z,42.04
2019-04-22T08:59:22.095Z,41.38
2019-04-22T09:01:57.461Z,41.86
2019-04-22T09:04:23.346Z,41.97
2019-04-22T09:09:42.898Z,40.59
2019-04-22T09:12:11.335Z,41.85
2019-04-22T09:17:13.731Z,39.82
2019-04-22T09:19:43.820Z,39.71
2019-04-22T09:22:15.482Z,37.64
2019-04-22T09:27:24.907Z,37.16
2019-04-22T09:29:56.466Z,37.36
2019-04-22T09:32:36.413Z,37.85
2019-04-22T09:34:51.374Z,36.43
2019-04-22T09:37:26.846Z,35.96
2019-04-22T09:40:03.274Z,37.27
2019-04-22T09:42:32.289Z,35.01
2019-04-22T09:45:01.927Z,34.05
2019-04-22T09:47:37.284Z,33.46
2019-04-22T09:50:24.233Z,34.75
2019-04-22T09:52:35.949Z,33.47
2019-04-22T09:55:15.401Z,33.57
2019-04-22T09:57:43.855Z,32.24
2019-04-22T10:00:31.560Z,33.11
2019-04-22T10:03:07.208Z,33.44
2019-04-22T10:05:32.883Z,32.06
2019-04-22T10:08:14.471Z,31.22
2019-04-22T10:10:46.884Z,30.82
2019-04-22T10:13:18.694Z,30.83
2019-04-22T10:15:52.222Z,30.15
2019-04-22T10:18:23.329Z,31.27
2019-04-22T10:21:08.389Z,30.18
2019-04-22T10:23:25.287Z,30.02
2019-04-22T10:25:59.081Z,30.47
2019-04-22T10:28:32.578Z,29.35
2019-04-22T10:30:52.042Z,36.25
2019-04-22T10:33:26.884Z,30.44
2019-04-22T10:35:41.396Z,27.73
2019-04-22T10:38:12.723Z,29.47
2019-04-22T10:40:42.864Z,28.38
2019-04-22T10:43:12.928Z,27.14
2019-04-22T10:45:46.028Z,28.76
2019-04-22T10:48:16.516Z,33.04
2019-04-22T10:50:48.824Z,26.49
2019-04-22T10:53:19.723Z,28.26
2019-04-22T10:55:51.688Z,29.32
2019-04-22T10:58:22.889Z,26.42
2019-04-22T11:00:54.409Z,27.51
2019-04-22T11:03:26.551Z,26.86
2019-04-22T11:05:57.164Z,25.82
2019-04-22T11:08:37.897Z,25.16
2019-04-22T11:11:14.091Z,26.54
2019-04-22T11:13:31.735Z,27.00
2019-04-22T11:16:03.503Z,25.25
2019-04-22T11:18:33.813Z,25.43
2019-04-22T11:21:05.332Z,24.42
2019-04-22T11:23:36.451Z,24.49
2019-04-22T11:26:08.112Z,25.22
2019-04-22T11:28:41.387Z,24.06
2019-04-22T11:31:14.548Z,24.23
2019-04-22T11:33:44.992Z,25.14
2019-04-22T11:36:15.822Z,24.79
2019-04-22T11:38:52.315Z,25.19
2019-04-22T11:41:17.590Z,22.75
2019-04-22T11:43:49.414Z,25.18
2019-04-22T11:46:21.097Z,25.09
2019-04-22T11:48:51.885Z,23.55
2019-04-22T11:51:22.224Z,23.40
2019-04-22T11:53:52.650Z,22.59
2019-04-22T11:56:23.003Z,22.82
2019-04-22T11:58:53.147Z,22.09
2019-04-22T12:01:24.475Z,22.03
2019-04-22T12:03:55.782Z,24.25
2019-04-22T12:06:26.318Z,21.96
2019-04-22T12:08:57.577Z,24.20
2019-04-22T12:11:28.412Z,22.09
2019-04-22T12:14:00.006Z,21.95
2019-04-22T12:16:31.658Z,21.02
2019-04-22T12:19:02.965Z,22.07
2019-04-22T12:21:33.322Z,21.91
2019-04-22T12:24:03.451Z,21.16
2019-04-22T12:26:34.557Z,21.49
2019-04-22T12:29:07.068Z,20.34
2019-04-22T12:31:37.668Z,21.27
2019-04-22T12:34:07.998Z,20.05
2019-04-22T12:36:38.544Z,20.50
2019-04-22T12:39:11.433Z,21.14
2019-04-22T12:41:42.395Z,21.69
2019-04-22T12:44:13.334Z,21.82
2019-04-22T12:46:44.406Z,21.75
2019-04-22T12:49:14.405Z,21.02
2019-04-22T12:51:45.373Z,21.66
2019-04-22T12:54:15.466Z,20.48
2019-04-22T12:56:47.961Z,20.68
2019-04-22T12:59:19.396Z,20.28
2019-04-22T13:01:50.983Z,21.36
2019-04-22T13:07:17.721Z,20.58
2019-04-22T13:09:49.427Z,19.75
2019-04-22T13:12:22.392Z,20.73
2019-04-22T13:14:52.805Z,20.07
2019-04-22T13:17:23.204Z,20.12
2019-04-22T13:19:54.101Z,18.93
2019-04-22T13:22:25.054Z,19.86
2019-04-22T13:24:55.248Z,20.72
2019-04-22T13:27:26.839Z,20.26
2019-04-22T13:29:57.178Z,19.00
2019-04-22T13:32:27.179Z,19.90
2019-04-22T13:35:01.488Z,20.65
2019-04-22T13:37:30.794Z,19.62
2019-04-22T13:40:01.341Z,19.68
2019-04-22T13:42:33.385Z,19.54
2019-04-22T13:45:05.713Z,19.61
2019-04-22T13:47:54.666Z,19.12
2019-04-22T13:50:47.583Z,19.63
2019-04-22T13:53:18.319Z,20.04
2019-04-22T13:57:59.116Z,20.93
2019-04-22T14:00:24.934Z,19.75
2019-04-22T14:06:00.692Z,20.65
2019-04-22T14:08:31.403Z,21.76
2019-04-22T14:11:13.172Z,21.68
2019-04-22T14:13:34.231Z,20.75
2019-04-22T14:16:04.807Z,20.66
2019-04-22T14:18:35.014Z,20.13
2019-04-22T14:21:05.262Z,20.53
2019-04-22T14:23:36.314Z,21.06
2019-04-22T14:26:07.171Z,21.49
2019-04-22T14:28:37.532Z,21.09
2019-04-22T14:31:08.789Z,21.27
2019-04-22T14:33:40.715Z,20.51
2019-04-22T14:36:11.669Z,20.65
2019-04-22T14:38:42.064Z,20.72
2019-04-22T14:41:34.246Z,20.16
2019-04-22T14:44:49.628Z,20.66
2019-04-22T14:46:39.193Z,20.55
2019-04-22T14:49:10.693Z,20.39
2019-04-22T14:51:43.947Z,20.43
2019-04-22T14:54:09.691Z,20.10
2019-04-22T14:56:24.394Z,20.02
2019-04-22T14:58:56.572Z,20.68
2019-04-22T15:01:26.762Z,20.37
2019-04-22T15:03:56.893Z,22.53
2019-04-22T15:06:28.371Z,22.72
2019-04-22T15:08:59.731Z,23.98
2019-04-22T15:11:41.813Z,23.48
2019-04-22T15:14:01.549Z,23.39
2019-04-22T15:16:50.912Z,23.75
2019-04-22T15:19:25.835Z,24.29
2019-04-22T15:21:56.597Z,24.29
2019-04-22T15:24:27.482Z,24.63
2019-04-22T15:26:58.765Z,24.27
2019-04-22T15:29:29.745Z,25.05
2019-04-22T15:32:00.973Z,24.20
2019-04-22T15:34:32.565Z,24.56
2019-04-22T15:37:04.179Z,24.26
2019-04-22T15:39:34.361Z,24.74
2019-04-22T15:42:13.604Z,25.05
2019-04-22T15:44:37.442Z,24.99
2019-04-22T15:47:09.153Z,25.27
2019-04-22T15:49:40.265Z,25.40
2019-04-22T15:52:10.570Z,25.85
2019-04-22T15:54:41.570Z,25.52
2019-04-22T15:57:12.870Z,25.35
2019-04-22T15:59:59.253Z,25.52
2019-04-22T16:02:15.994Z,25.54
2019-04-22T16:04:46.598Z,24.98
2019-04-22T16:07:17.114Z,24.71
2019-04-22T16:09:47.890Z,25.29
2019-04-22T16:12:26.186Z,25.53
2019-04-22T16:14:53.401Z,24.16
2019-04-22T16:17:22.467Z,29.85
2019-04-22T16:19:53.258Z,27.58
2019-04-22T16:22:26.633Z,23.88
2019-04-22T16:24:58.261Z,23.93
2019-04-22T16:27:30.249Z,24.09
2019-04-22T16:30:01.335Z,25.06
2019-04-22T16:32:33.688Z,24.80
2019-04-22T16:35:06.354Z,24.70
2019-04-22T16:37:37.064Z,24.64
2019-04-22T16:40:09.196Z,24.87
2019-04-22T16:42:45.900Z,24.60
2019-04-22T16:45:15.620Z,25.33
2019-04-22T16:47:46.765Z,25.36
2019-04-22T16:50:18.169Z,25.45
2019-04-22T16:52:48.346Z,25.36
2019-04-22T16:55:18.942Z,25.71
2019-04-22T16:57:49.009Z,25.60
2019-04-22T17:00:20.625Z,25.72
2019-04-22T17:02:58.703Z,26.57
2019-04-22T17:05:49.882Z,25.98
2019-04-22T17:08:22.156Z,26.81
2019-04-22T17:10:53.641Z,26.22
2019-04-22T17:13:28.352Z,27.44
2019-04-22T17:15:59.035Z,26.72
2019-04-22T17:18:27.902Z,27.34
2019-04-22T17:20:58.494Z,27.49
2019-04-22T17:23:29.639Z,27.02
2019-04-22T17:26:00.810Z,26.55
2019-04-22T17:28:31.340Z,26.37
2019-04-22T17:31:01.939Z,27.09
2019-04-22T17:33:32.779Z,27.17
2019-04-22T17:36:03.324Z,26.74
2019-04-22T17:38:44.340Z,27.51
2019-04-22T17:41:18.750Z,27.96
2019-04-22T17:43:59.064Z,27.93
2019-04-22T17:46:30.769Z,30.35
2019-04-22T17:49:04.302Z,31.26
2019-04-22T17:51:36.319Z,31.03
2019-04-22T17:54:12.867Z,30.88
2019-04-22T17:56:46.846Z,32.71
2019-04-22T17:59:17.186Z,32.22
2019-04-22T18:01:45.094Z,32.16
2019-04-22T18:03:59.303Z,32.04
2019-04-22T18:06:56.557Z,32.16
2019-04-22T18:09:19.362Z,32.68
2019-04-22T18:11:51.001Z,34.10
2019-04-22T18:14:35.026Z,34.09
2019-04-22T18:16:53.557Z,33.80
2019-04-22T18:19:26.281Z,35.46
2019-04-22T18:21:53.128Z,35.42
2019-04-22T18:24:20.108Z,39.18
2019-04-22T18:27:18.985Z,35.88
2019-04-22T18:29:33.070Z,36.23
2019-04-22T18:32:00.750Z,36.94
2019-04-22T18:34:32.526Z,36.96
2019-04-22T18:37:09.305Z,36.79
2019-04-22T18:39:50.973Z,37.16
2019-04-22T18:42:15.021Z,37.29
2019-04-22T18:44:45.533Z,38.13
2019-04-22T18:47:14.611Z,37.18
2019-04-22T18:49:46.198Z,37.28
2019-04-22T18:52:32.539Z,37.46
2019-04-22T18:55:14.293Z,38.20
2019-04-22T18:58:01.073Z,38.57
2019-04-22T19:00:21.145Z,38.90
2019-04-22T19:03:03.030Z,38.48
2019-04-22T19:05:45.531Z,38.91
2019-04-22T19:08:23.218Z,38.38
2019-04-22T19:11:06.923Z,38.93
2019-04-22T19:16:01.480Z,40.09
2019-04-22T19:21:02.694Z,39.80
2019-04-22T19:23:32.772Z,40.14
2019-04-22T19:26:04.059Z,40.59
2019-04-22T19:28:43.843Z,40.47
2019-04-22T19:31:13.515Z,40.69
2019-04-22T19:33:40.672Z,41.11
2019-04-22T19:36:19.203Z,41.28
2019-04-22T19:38:32.249Z,41.46
2019-04-22T19:41:20.015Z,41.96
2019-04-22T19:43:46.886Z,42.17
2019-04-22T19:46:16.753Z,42.28
2019-04-22T19:51:24.375Z,43.30
2019-04-22T19:53:55.991Z,44.27
2019-04-22T19:56:21.139Z,43.88
2019-04-22T19:58:54.890Z,43.81
2019-04-22T20:01:27.276Z,44.22
2019-04-22T20:04:19.291Z,44.12
2019-04-22T20:06:45.589Z,44.83
2019-04-22T20:09:21.095Z,44.90
2019-04-22T20:11:49.464Z,45.32
2019-04-22T20:14:23.087Z,45.81
2019-04-22T20:16:53.369Z,45.79
2019-04-22T20:19:36.106Z,46.43
2019-04-22T20:21:58.102Z,45.38
2019-04-22T20:24:14.538Z,46.27
2019-04-22T20:27:10.122Z,46.21
2019-04-22T20:29:38.368Z,46.05
2019-04-22T20:32:05.695Z,46.86
2019-04-22T20:34:42.250Z,47.10
2019-04-22T20:39:45.672Z,47.48
2019-04-22T20:42:33.207Z,47.93
2019-04-22T20:44:46.189Z,47.99
2019-04-22T20:47:13.928Z,48.21
2019-04-22T20:49:50.373Z,48.77
2019-04-22T20:52:26.169Z,49.26
2019-04-22T20:54:53.057Z,49.56
2019-04-22T20:57:25.947Z,49.29
2019-04-22T20:59:52.224Z,49.54
2019-04-22T21:02:19.308Z,50.01
2019-04-22T21:04:49.005Z,50.14
2019-04-22T21:07:26.799Z,49.99
2019-04-22T21:09:57.943Z,50.45
2019-04-22T21:12:27.345Z,50.70
2019-04-22T21:15:10.722Z,50.27
2019-04-22T21:17:39.021Z,50.82
2019-04-22T21:20:21.996Z,51.06
2019-04-22T21:22:43.472Z,51.56
2019-04-22T21:25:08.894Z,51.74
2019-04-22T21:27:52.637Z,51.71
2019-04-22T21:30:12.436Z,52.20
2019-04-22T21:32:45.325Z,52.45
2019-04-22T21:35:32.150Z,52.96
2019-04-22T21:37:57.881Z,52.45
2019-04-22T21:40:32.420Z,52.88
2019-04-22T21:43:10.669Z,52.80
2019-04-22T21:45:25.251Z,52.48
2019-04-22T21:48:15.508Z,53.49
2019-04-22T21:50:48.100Z,53.54
2019-04-22T21:53:17.699Z,54.04
2019-04-22T21:55:43.748Z,53.67
2019-04-22T21:58:21.375Z,53.98
2019-04-22T22:01:02.595Z,54.01
2019-04-22T22:03:30.062Z,54.77
2019-04-22T22:05:49.240Z,54.29
2019-04-22T22:08:32.105Z,54.55
2019-04-22T22:11:03.786Z,54.69
2019-04-22T22:13:34.811Z,55.14
2019-04-22T22:16:04.624Z,55.09
2019-04-22T22:18:30.364Z,55.92
2019-04-22T22:21:26.853Z,55.91
2019-04-22T22:23:42.470Z,56.25
2019-04-22T22:26:09.576Z,56.23
2019-04-22T22:31:21.975Z,56.08
2019-04-22T22:33:48.296Z,56.42
2019-04-22T22:36:16.333Z,56.86
2019-04-22T22:38:49.649Z,57.37
2019-04-22T22:41:05.847Z,57.12
2019-04-22T22:43:43.247Z,57.11
2019-04-22T22:46:17.735Z,58.04
2019-04-22T22:49:03.277Z,57.44
2019-04-22T22:51:39.488Z,57.69
2019-04-22T22:54:12.192Z,58.43
2019-04-22T22:56:46.994Z,58.79
2019-04-22T22:59:10.839Z,58.36
2019-04-22T23:01:45.426Z,58.53
2019-04-22T23:04:16.502Z,58.74
2019-04-22T23:06:53.178Z,58.47
2019-04-22T23:09:19.845Z,58.74
2019-04-22T23:12:06.058Z,58.88
2019-04-22T23:14:23.253Z,59.00
2019-04-22T23:16:41.896Z,59.54
2019-04-22T23:19:06.869Z,60.02
2019-04-22T23:21:41.484Z,61.19
2019-04-22T23:24:26.489Z,60.70
2019-04-22T23:27:14.656Z,60.82
2019-04-22T23:29:55.527Z,60.62
2019-04-22T23:32:31.898Z,61.24
2019-04-22T23:35:10.446Z,60.67
2019-04-22T23:37:44.121Z,61.58
2019-04-22T23:40:23.882Z,61.87
2019-04-22T23:42:44.509Z,61.87
2019-04-22T23:45:21.085Z,62.24
2019-04-22T23:47:41.217Z,62.36
2019-04-22T23:50:26.728Z,61.73
2019-04-22T23:52:58.967Z,61.71
2019-04-22T23:55:33.832Z,61.04
2019-04-22T23:58:03.572Z,61.79
